createdAt,value
2019-04-03T00:00:49.785Z,27.37
2019-04-03T00:03:15.823Z,27.33
2019-04-03T00:05:42.179Z,27.37
2019-04-03T00:08:08.526Z,27.27
2019-04-03T00:10:37.374Z,27.13
2019-04-03T00:13:04.544Z,26.47
2019-04-03T00:15:31.211Z,26.10
2019-04-03T00:17:57.317Z,25.73
2019-04-03T00:20:23.767Z,26.47
2019-04-03T00:22:51.916Z,24.20
2019-04-03T00:25:18.205Z,24.50
2019-04-03T00:27:44.504Z,25.40
2019-04-03T00:30:12.112Z,24.87
2019-04-03T00:32:38.215Z,24.77
2019-04-03T00:35:05.674Z,24.63
2019-04-03T00:37:33.519Z,23.70
2019-04-03T00:39:59.961Z,24.10
2019-04-03T00:42:26.085Z,24.77
2019-04-03T00:44:52.747Z,24.77
2019-04-03T00:47:20.291Z,24.67
2019-04-03T00:49:46.492Z,24.17
2019-04-03T00:52:12.730Z,24.93
2019-04-03T00:54:38.838Z,24.13
2019-04-03T00:57:04.978Z,24.30
2019-04-03T00:59:31.088Z,24.30
2019-04-03T01:01:57.221Z,22.93
2019-04-03T01:04:23.580Z,23.53
2019-04-03T01:06:50.004Z,22.83
2019-04-03T01:09:16.207Z,24.10
2019-04-03T01:11:42.523Z,23.93
2019-04-03T01:14:08.873Z,24.77
2019-04-03T01:16:35.225Z,22.00
2019-04-03T01:19:01.426Z,22.13
2019-04-03T01:21:28.832Z,23.33
2019-04-03T01:23:55.051Z,23.93
2019-04-03T01:26:21.379Z,24.47
2019-04-03T01:28:47.759Z,23.37
2019-04-03T01:31:14.872Z,24.13
2019-04-03T01:33:41.714Z,24.83
2019-04-03T01:36:08.009Z,24.50
2019-04-03T01:38:34.216Z,24.47
2019-04-03T01:41:00.494Z,24.17
2019-04-03T01:43:26.706Z,24.87
2019-04-03T01:45:53.158Z,24.10
2019-04-03T01:48:19.584Z,24.97
2019-04-03T01:50:46.147Z,24.37
2019-04-03T01:53:12.368Z,23.60
2019-04-03T01:55:38.707Z,24.00
2019-04-03T01:58:06.736Z,24.53
2019-04-03T02:00:33.108Z,27.10
2019-04-03T02:03:01.757Z,27.93
2019-04-03T02:05:27.466Z,27.23
2019-04-03T02:07:53.904Z,27.83
2019-04-03T02:10:21.667Z,25.50
2019-04-03T02:12:50.388Z,27.20
2019-04-03T02:15:16.192Z,27.33
2019-04-03T02:17:42.623Z,29.17
2019-04-03T02:20:09.055Z,27.63
2019-04-03T02:22:35.487Z,28.47
2019-04-03T02:25:02.197Z,28.00
2019-04-03T02:27:29.999Z,29.90
2019-04-03T02:29:56.314Z,30.20
2019-04-03T02:32:24.168Z,28.87
2019-04-03T02:34:50.695Z,29.97
2019-04-03T02:37:17.627Z,29.77
2019-04-03T02:39:44.019Z,29.27
2019-04-03T02:42:10.490Z,28.30
2019-04-03T02:44:37.102Z,28.73
2019-04-03T02:47:03.409Z,28.17
2019-04-03T02:49:29.728Z,30.93
2019-04-03T02:51:56.060Z,28.40
2019-04-03T02:54:29.771Z,28.30
2019-04-03T02:56:57.167Z,28.10
2019-04-03T02:59:25.975Z,27.77
2019-04-03T03:01:51.920Z,26.27
2019-04-03T03:04:20.452Z,25.90
2019-04-03T03:06:46.798Z,24.10
2019-04-03T03:09:14.572Z,25.10
2019-04-03T03:11:40.979Z,24.97
2019-04-03T03:14:08.241Z,24.67
2019-04-03T03:16:35.098Z,24.67
2019-04-03T03:19:01.835Z,24.30
2019-04-03T03:21:29.507Z,23.97
2019-04-03T03:23:57.142Z,24.70
2019-04-03T03:26:23.719Z,26.97
2019-04-03T03:28:50.196Z,27.10
2019-04-03T03:31:16.510Z,25.73
2019-04-03T03:33:43.751Z,25.70
2019-04-03T03:36:18.486Z,26.93
2019-04-03T03:38:40.433Z,23.33
2019-04-03T03:41:07.367Z,26.73
2019-04-03T03:43:37.077Z,26.17
2019-04-03T03:46:02.170Z,27.60
2019-04-03T03:48:28.682Z,27.70
2019-04-03T03:50:57.524Z,27.73
2019-04-03T03:53:23.602Z,27.60
2019-04-03T03:55:50.241Z,29.07
2019-04-03T03:58:17.946Z,28.27
2019-04-03T04:00:44.474Z,29.10
2019-04-03T04:03:12.053Z,27.97
2019-04-03T04:05:38.415Z,28.20
2019-04-03T04:08:09.316Z,25.27
2019-04-03T04:10:37.119Z,28.87
2019-04-03T04:13:03.770Z,28.60
2019-04-03T04:15:31.872Z,28.10
2019-04-03T04:17:58.262Z,30.23
2019-04-03T04:20:24.578Z,29.37
2019-04-03T04:22:51.542Z,29.13
2019-04-03T04:25:18.064Z,28.17
2019-04-03T04:27:44.567Z,28.20
2019-04-03T04:30:14.494Z,28.60
2019-04-03T04:32:41.244Z,28.97
2019-04-03T04:35:10.358Z,29.73
2019-04-03T04:37:35.640Z,26.37
2019-04-03T04:40:02.235Z,28.97
2019-04-03T04:42:28.580Z,28.87
2019-04-03T04:44:54.708Z,27.50
2019-04-03T04:47:20.937Z,28.57
2019-04-03T04:49:47.287Z,29.00
2019-04-03T04:52:13.661Z,32.13
2019-04-03T04:54:42.798Z,34.23
2019-04-03T04:57:09.264Z,31.17
2019-04-03T04:59:36.996Z,28.80
2019-04-03T05:02:03.681Z,28.93
2019-04-03T05:04:30.073Z,32.80
2019-04-03T05:06:56.267Z,30.97
2019-04-03T05:09:22.516Z,28.13
2019-04-03T05:11:48.642Z,31.63
2019-04-03T05:14:15.805Z,31.23
2019-04-03T05:16:43.404Z,32.83
2019-04-03T05:19:15.875Z,33.07
2019-04-03T05:21:38.373Z,32.97
2019-04-03T05:24:12.064Z,34.23
2019-04-03T05:26:34.037Z,33.03
2019-04-03T05:29:00.187Z,33.83
2019-04-03T05:31:26.604Z,31.00
2019-04-03T05:33:52.759Z,35.17
2019-04-03T05:36:18.994Z,35.70
2019-04-03T05:38:45.155Z,35.30
2019-04-03T05:41:11.753Z,36.53
2019-04-03T05:43:38.052Z,36.23
2019-04-03T05:46:05.647Z,36.97
2019-04-03T05:48:32.496Z,37.00
2019-04-03T05:50:59.820Z,36.53
2019-04-03T05:53:26.039Z,37.37
2019-04-03T05:55:52.275Z,38.60
2019-04-03T05:58:18.537Z,38.83
2019-04-03T06:00:44.771Z,39.07
2019-04-03T06:03:11.074Z,38.10
2019-04-03T06:05:37.185Z,38.00
2019-04-03T06:08:03.819Z,37.83
2019-04-03T06:10:32.473Z,36.07
2019-04-03T06:12:59.277Z,37.67
2019-04-03T06:15:25.611Z,37.80
2019-04-03T06:17:54.266Z,38.00
2019-04-03T06:20:20.212Z,36.87
2019-04-03T06:22:47.910Z,38.73
2019-04-03T06:25:14.576Z,37.20
2019-04-03T06:27:43.024Z,38.70
2019-04-03T06:30:09.608Z,39.20
2019-04-03T06:32:35.941Z,39.97
2019-04-03T06:35:02.572Z,38.30
2019-04-03T06:37:29.005Z,40.13
2019-04-03T06:39:55.204Z,38.87
2019-04-03T06:42:21.439Z,38.17
2019-04-03T06:44:47.743Z,36.17
2019-04-03T06:47:15.780Z,33.47
2019-04-03T06:49:42.307Z,32.33
2019-04-03T06:52:08.725Z,30.03
2019-04-03T06:54:35.217Z,31.37
2019-04-03T06:57:01.483Z,30.80
2019-04-03T06:59:27.746Z,30.13
2019-04-03T07:01:53.985Z,29.60
2019-04-03T07:04:20.239Z,30.83
2019-04-03T07:06:46.565Z,31.17
2019-04-03T07:09:22.722Z,29.77
2019-04-03T07:11:43.301Z,27.93
2019-04-03T07:14:09.401Z,28.00
2019-04-03T07:16:38.072Z,28.37
2019-04-03T07:19:04.061Z,29.00
2019-04-03T07:21:30.242Z,27.33
2019-04-03T07:23:56.573Z,28.07
2019-04-03T07:26:22.828Z,25.57
2019-04-03T07:28:49.425Z,25.03
2019-04-03T07:31:15.781Z,25.63
2019-04-03T07:33:43.005Z,23.77
2019-04-03T07:36:11.565Z,24.87
2019-04-03T07:38:38.370Z,24.77
2019-04-03T07:41:04.691Z,23.50
2019-04-03T07:43:30.889Z,23.37
2019-04-03T07:45:57.359Z,23.27
2019-04-03T07:48:23.585Z,24.90
2019-04-03T07:50:49.869Z,24.63
2019-04-03T07:53:16.121Z,25.13
2019-04-03T07:55:44.195Z,25.70
2019-04-03T07:58:10.900Z,26.70
2019-04-03T08:00:38.540Z,28.20
2019-04-03T08:03:05.561Z,27.33
2019-04-03T08:05:32.093Z,29.37
2019-04-03T08:07:58.288Z,31.20
2019-04-03T08:10:24.551Z,29.93
2019-04-03T08:12:50.868Z,29.67
2019-04-03T08:15:18.212Z,29.63
2019-04-03T08:17:44.526Z,30.17
2019-04-03T08:20:11.033Z,28.33
2019-04-03T08:22:37.389Z,28.80
2019-04-03T08:25:05.541Z,27.73
2019-04-03T08:27:31.758Z,33.03
2019-04-03T08:29:58.204Z,31.40
2019-04-03T08:32:24.422Z,32.37
2019-04-03T08:34:50.652Z,32.20
2019-04-03T08:37:28.402Z,31.03
2019-04-03T08:39:45.189Z,29.40
2019-04-03T08:42:11.571Z,28.50
2019-04-03T08:44:37.878Z,28.13
2019-04-03T08:47:04.272Z,27.57
2019-04-03T08:49:30.511Z,27.73
2019-04-03T08:51:56.828Z,27.53
2019-04-03T08:54:23.074Z,28.63
2019-04-03T08:56:49.480Z,29.37
2019-04-03T08:59:17.297Z,28.10
2019-04-03T09:01:43.679Z,28.97
2019-04-03T09:04:09.763Z,29.37
2019-04-03T09:06:36.287Z,29.00
2019-04-03T09:09:06.254Z,28.03
2019-04-03T09:11:34.089Z,28.77
2019-04-03T09:14:00.793Z,25.70
2019-04-03T09:16:28.782Z,23.87
2019-04-03T09:18:55.882Z,22.20
2019-04-03T09:21:22.198Z,21.90
2019-04-03T09:23:48.824Z,20.83
2019-04-03T09:26:15.389Z,22.47
2019-04-03T09:28:42.432Z,22.10
2019-04-03T09:31:09.323Z,19.23
2019-04-03T09:33:35.899Z,18.50
2019-04-03T09:36:04.397Z,17.17
2019-04-03T09:38:30.316Z,17.27
2019-04-03T09:40:56.738Z,16.80
2019-04-03T09:43:23.261Z,16.60
2019-04-03T09:45:49.538Z,17.17
2019-04-03T09:48:15.663Z,19.20
2019-04-03T09:50:42.190Z,19.33
2019-04-03T09:53:08.496Z,21.27
2019-04-03T09:55:36.943Z,21.63
2019-04-03T09:58:04.210Z,22.17
2019-04-03T10:00:30.788Z,20.87
2019-04-03T10:02:56.820Z,21.60
2019-04-03T10:05:24.174Z,20.20
2019-04-03T10:07:50.478Z,19.20
2019-04-03T10:10:17.096Z,20.27
2019-04-03T10:12:47.332Z,20.33
2019-04-03T10:15:11.892Z,17.87
2019-04-03T10:17:38.526Z,17.37
2019-04-03T10:20:06.787Z,17.90
2019-04-03T10:22:32.967Z,15.97
2019-04-03T10:25:00.557Z,14.80
2019-04-03T10:27:27.072Z,15.37
2019-04-03T10:29:55.687Z,15.83
2019-04-03T10:32:21.498Z,15.33
2019-04-03T10:34:47.964Z,16.47
2019-04-03T10:37:15.139Z,15.63
2019-04-03T10:39:44.250Z,16.43
2019-04-03T10:42:10.184Z,16.93
2019-04-03T10:44:36.421Z,17.90
2019-04-03T10:47:02.744Z,17.47
2019-04-03T10:49:32.060Z,18.30
2019-04-03T10:51:58.425Z,17.63
2019-04-03T10:54:25.364Z,20.13
2019-04-03T10:56:52.286Z,21.80
2019-04-03T10:59:19.216Z,21.90
2019-04-03T11:01:45.657Z,22.87
2019-04-03T11:04:12.156Z,21.23
2019-04-03T11:06:38.451Z,19.50
2019-04-03T11:09:07.730Z,19.00
2019-04-03T11:11:37.021Z,17.50
2019-04-03T11:14:06.689Z,19.30
2019-04-03T11:16:32.660Z,19.27
2019-04-03T11:19:04.520Z,17.17
2019-04-03T11:21:26.915Z,18.50
2019-04-03T11:23:53.696Z,18.00
2019-04-03T11:26:24.338Z,17.03
2019-04-03T11:28:49.933Z,16.77
2019-04-03T11:31:25.932Z,15.80
2019-04-03T11:33:46.005Z,17.10
2019-04-03T11:36:12.706Z,18.13
2019-04-03T11:38:39.205Z,19.43
2019-04-03T11:41:12.809Z,18.80
2019-04-03T11:43:33.566Z,19.70
2019-04-03T11:46:00.304Z,19.47
2019-04-03T11:48:27.812Z,21.80
2019-04-03T11:50:57.055Z,23.17
2019-04-03T11:53:22.146Z,21.50
2019-04-03T11:55:48.736Z,22.33
2019-04-03T11:58:15.089Z,23.10
2019-04-03T12:00:43.292Z,24.13
2019-04-03T12:03:11.347Z,22.47
2019-04-03T12:05:37.730Z,23.90
2019-04-03T12:08:03.979Z,22.47
2019-04-03T12:10:30.279Z,23.27
2019-04-03T12:12:56.597Z,24.30
2019-04-03T12:15:22.904Z,24.90
2019-04-03T12:17:49.748Z,23.40
2019-04-03T12:20:16.580Z,25.13
2019-04-03T12:22:43.195Z,25.43
2019-04-03T12:25:09.482Z,26.93
2019-04-03T12:27:36.639Z,24.23
2019-04-03T12:30:07.942Z,25.50
2019-04-03T12:32:38.449Z,24.07
2019-04-03T12:35:04.829Z,24.63
2019-04-03T12:37:31.352Z,24.83
2019-04-03T12:39:58.225Z,27.37
2019-04-03T12:42:25.802Z,22.57
2019-04-03T12:44:54.727Z,23.33
2019-04-03T12:47:20.441Z,19.27
2019-04-03T12:49:46.975Z,18.23
2019-04-03T12:52:13.348Z,16.13
2019-04-03T12:54:39.671Z,12.40
2019-04-03T12:57:06.016Z,13.13
2019-04-03T12:59:32.191Z,8.60
2019-04-03T13:01:58.550Z,11.47
2019-04-03T13:04:25.821Z,12.43
2019-04-03T13:06:52.716Z,13.43
2019-04-03T13:09:19.501Z,13.67
2019-04-03T13:11:45.807Z,13.57
2019-04-03T13:14:22.648Z,15.80
2019-04-03T13:16:41.786Z,16.73
2019-04-03T13:19:08.441Z,13.07
2019-04-03T13:21:34.986Z,12.80
2019-04-03T13:24:01.278Z,11.33
2019-04-03T13:26:27.745Z,17.13
2019-04-03T13:28:54.466Z,27.07
2019-04-03T13:31:20.955Z,28.47
2019-04-03T13:33:47.167Z,18.57
2019-04-03T13:36:13.713Z,16.00
2019-04-03T13:38:40.218Z,15.20
2019-04-03T13:41:07.950Z,13.20
2019-04-03T13:43:34.753Z,15.67
2019-04-03T13:46:03.856Z,15.30
2019-04-03T13:48:29.225Z,14.70
2019-04-03T13:50:56.420Z,13.33
2019-04-03T13:53:25.055Z,11.83
2019-04-03T13:55:51.160Z,10.47
2019-04-03T13:58:20.589Z,10.87
2019-04-03T14:00:57.834Z,9.60
2019-04-03T14:03:15.871Z,8.63
2019-04-03T14:05:43.956Z,8.27
2019-04-03T14:08:12.239Z,9.07
2019-04-03T14:10:38.823Z,9.27
2019-04-03T14:13:05.072Z,10.50
2019-04-03T14:15:31.256Z,10.07
2019-04-03T14:17:59.184Z,11.00
2019-04-03T14:20:25.967Z,7.17
2019-04-03T14:22:52.312Z,8.30
2019-04-03T14:25:22.165Z,8.60
2019-04-03T14:27:46.802Z,8.87
2019-04-03T14:30:13.241Z,8.60
2019-04-03T14:32:40.044Z,8.57
2019-04-03T14:35:35.162Z,9.90
2019-04-03T14:37:35.186Z,9.73
2019-04-03T14:40:01.582Z,9.57
2019-04-03T14:42:28.418Z,8.10
2019-04-03T14:44:54.853Z,9.27
2019-04-03T14:47:22.758Z,8.77
2019-04-03T14:49:49.082Z,8.03
2019-04-03T14:52:17.671Z,7.10
2019-04-03T14:54:43.935Z,8.70
2019-04-03T14:57:20.020Z,8.60
2019-04-03T14:59:38.524Z,8.70
2019-04-03T15:02:04.840Z,8.20
2019-04-03T15:04:36.127Z,7.30
2019-04-03T15:07:03.533Z,7.93
2019-04-03T15:09:28.738Z,8.40
2019-04-03T15:11:54.878Z,8.60
2019-04-03T15:14:22.177Z,7.73
2019-04-03T15:16:49.219Z,7.20
2019-04-03T15:19:15.562Z,6.20
2019-04-03T15:21:42.062Z,6.80
2019-04-03T15:24:08.954Z,6.27
2019-04-03T15:26:36.512Z,6.47
2019-04-03T15:29:03.625Z,7.17
2019-04-03T15:31:30.180Z,6.50
2019-04-03T15:33:56.754Z,6.20
2019-04-03T15:36:23.027Z,7.23
2019-04-03T15:38:49.921Z,7.20
2019-04-03T15:41:16.211Z,7.23
2019-04-03T15:43:45.596Z,7.47
2019-04-03T15:46:10.946Z,7.23
2019-04-03T15:48:39.890Z,6.90
2019-04-03T15:51:07.175Z,7.03
2019-04-03T15:53:33.723Z,7.10
2019-04-03T15:56:00.353Z,7.03
2019-04-03T15:58:27.299Z,7.03
2019-04-03T16:00:53.962Z,6.20
2019-04-03T16:03:20.777Z,7.17
2019-04-03T16:05:47.222Z,6.67
2019-04-03T16:08:14.044Z,7.07
2019-04-03T16:10:40.686Z,7.20
2019-04-03T16:13:07.014Z,7.27
2019-04-03T16:15:33.540Z,6.87
2019-04-03T16:18:00.007Z,7.90
2019-04-03T16:20:26.513Z,7.23
2019-04-03T16:22:52.863Z,8.03
2019-04-03T16:25:22.230Z,7.57
2019-04-03T16:27:48.800Z,8.87
2019-04-03T16:30:17.322Z,7.70
2019-04-03T16:32:43.615Z,9.13
2019-04-03T16:35:12.714Z,11.23
2019-04-03T16:37:38.465Z,12.30
2019-04-03T16:40:06.710Z,8.80
2019-04-03T16:42:33.248Z,9.50
2019-04-03T16:45:03.135Z,9.80
2019-04-03T16:47:28.020Z,9.97
2019-04-03T16:49:55.915Z,9.73
2019-04-03T16:52:22.531Z,9.03
2019-04-03T16:54:48.790Z,8.83
2019-04-03T16:57:15.287Z,8.73
2019-04-03T16:59:41.754Z,9.80
2019-04-03T17:02:08.167Z,9.27
2019-04-03T17:04:35.594Z,9.20
2019-04-03T17:07:03.323Z,8.63
2019-04-03T17:09:32.558Z,9.00
2019-04-03T17:11:58.251Z,8.23
2019-04-03T17:14:25.116Z,8.60
2019-04-03T17:16:51.928Z,8.83
2019-04-03T17:19:18.901Z,8.53
2019-04-03T17:21:45.295Z,8.60
2019-04-03T17:24:11.858Z,8.77
2019-04-03T17:26:47.859Z,8.23
2019-04-03T17:29:06.832Z,9.10
2019-04-03T17:31:33.323Z,8.47
2019-04-03T17:33:59.631Z,9.00
2019-04-03T17:36:25.855Z,9.00
2019-04-03T17:38:52.203Z,15.83
2019-04-03T17:41:18.300Z,13.60
2019-04-03T17:43:44.684Z,13.17
2019-04-03T17:46:11.025Z,10.30
2019-04-03T17:48:37.264Z,8.90
2019-04-03T17:51:03.616Z,10.40
2019-04-03T17:53:30.107Z,10.00
2019-04-03T17:55:56.336Z,10.00
2019-04-03T17:58:22.587Z,10.97
2019-04-03T18:00:51.677Z,11.83
2019-04-03T18:03:19.366Z,11.67
2019-04-03T18:05:45.080Z,11.30
2019-04-03T18:08:11.417Z,11.83
2019-04-03T18:10:37.662Z,12.50
2019-04-03T18:13:04.020Z,14.23
2019-04-03T18:15:32.920Z,14.73
2019-04-03T18:18:02.557Z,16.67
2019-04-03T18:20:27.561Z,22.97
2019-04-03T18:22:53.823Z,14.47
2019-04-03T18:25:20.177Z,14.50
2019-04-03T18:27:47.546Z,15.40
2019-04-03T18:30:14.267Z,14.80
2019-04-03T18:32:40.600Z,15.37
2019-04-03T18:35:07.504Z,16.37
2019-04-03T18:37:34.405Z,14.87
2019-04-03T18:40:01.047Z,16.10
2019-04-03T18:42:27.210Z,14.10
2019-04-03T18:44:53.323Z,13.90
2019-04-03T18:47:19.548Z,14.53
2019-04-03T18:49:45.659Z,16.47
2019-04-03T18:52:11.847Z,17.63
2019-04-03T18:54:38.064Z,16.03
2019-04-03T18:57:04.411Z,17.93
2019-04-03T18:59:30.663Z,18.20
2019-04-03T19:01:57.120Z,18.50
2019-04-03T19:04:23.333Z,20.20
2019-04-03T19:06:49.693Z,20.57
2019-04-03T19:09:16.014Z,21.33
2019-04-03T19:11:42.258Z,12.23
2019-04-03T19:14:08.616Z,11.80
2019-04-03T19:16:45.052Z,11.40
2019-04-03T19:19:08.083Z,12.43
2019-04-03T19:21:32.616Z,15.10
2019-04-03T19:23:58.941Z,14.37
2019-04-03T19:26:25.356Z,11.27
2019-04-03T19:28:51.551Z,10.13
2019-04-03T19:31:18.065Z,11.70
2019-04-03T19:33:45.395Z,14.57
2019-04-03T19:36:12.006Z,13.27
2019-04-03T19:38:38.224Z,13.03
2019-04-03T19:41:04.647Z,14.93
2019-04-03T19:43:30.974Z,14.93
2019-04-03T19:45:57.193Z,14.63
2019-04-03T19:48:23.851Z,15.83
2019-04-03T19:50:52.035Z,20.10
2019-04-03T19:53:18.344Z,15.77
2019-04-03T19:55:44.591Z,17.07
2019-04-03T19:58:10.857Z,20.70
2019-04-03T20:00:37.297Z,21.03
2019-04-03T20:03:03.544Z,18.83
2019-04-03T20:05:29.901Z,17.57
2019-04-03T20:07:58.606Z,20.17
2019-04-03T20:10:24.598Z,19.27
2019-04-03T20:12:51.144Z,23.97
2019-04-03T20:15:17.485Z,19.57
2019-04-03T20:17:44.626Z,16.33
2019-04-03T20:20:11.044Z,11.97
2019-04-03T20:22:38.294Z,11.80
2019-04-03T20:25:06.068Z,11.90
2019-04-03T20:27:32.480Z,13.90
2019-04-03T20:30:00.611Z,12.40
2019-04-03T20:32:26.867Z,14.73
2019-04-03T20:34:53.107Z,12.83
2019-04-03T20:37:19.407Z,12.60
2019-04-03T20:39:45.573Z,11.60
2019-04-03T20:42:11.793Z,13.30
2019-04-03T20:44:39.067Z,14.77
2019-04-03T20:47:05.396Z,15.27
2019-04-03T20:49:31.619Z,14.73
2019-04-03T20:51:57.841Z,15.23
2019-04-03T20:54:24.061Z,14.70
2019-04-03T20:56:57.612Z,14.60
2019-04-03T20:59:18.529Z,13.67
2019-04-03T21:01:44.749Z,16.33
2019-04-03T21:04:11.054Z,15.20
2019-04-03T21:06:37.639Z,16.00
2019-04-03T21:09:05.741Z,14.00
2019-04-03T21:11:34.547Z,13.30
2019-04-03T21:14:00.938Z,13.97
2019-04-03T21:16:33.142Z,12.63
2019-04-03T21:18:55.201Z,11.60
2019-04-03T21:21:21.535Z,13.43
2019-04-03T21:23:47.627Z,15.90
2019-04-03T21:26:13.805Z,14.27
2019-04-03T21:28:41.022Z,14.43
2019-04-03T21:31:08.550Z,13.07
2019-04-03T21:33:34.770Z,12.63
2019-04-03T21:36:01.266Z,13.00
2019-04-03T21:38:27.488Z,14.30
2019-04-03T21:40:55.717Z,9.50
2019-04-03T21:43:21.863Z,11.20
2019-04-03T21:45:48.105Z,12.53
2019-04-03T21:48:14.371Z,13.17
2019-04-03T21:50:40.523Z,10.93
2019-04-03T21:53:06.625Z,11.10
2019-04-03T21:55:34.694Z,13.03
2019-04-03T21:58:00.826Z,12.57
2019-04-03T22:00:58.553Z,11.60
2019-04-03T22:03:24.789Z,12.20
2019-04-03T22:05:50.858Z,11.57
2019-04-03T22:08:17.192Z,10.67
2019-04-03T22:10:43.387Z,9.73
2019-04-03T22:13:09.585Z,11.63
2019-04-03T22:15:37.038Z,12.97
2019-04-03T22:18:03.453Z,14.80
2019-04-03T22:20:30.119Z,14.03
2019-04-03T22:22:56.498Z,15.47
2019-04-03T22:25:22.707Z,15.10
2019-04-03T22:27:48.922Z,15.13
2019-04-03T22:30:15.134Z,12.43
2019-04-03T22:32:41.418Z,11.03
2019-04-03T22:35:07.737Z,10.07
2019-04-03T22:37:35.182Z,9.73
2019-04-03T22:40:04.484Z,11.33
2019-04-03T22:42:30.693Z,11.00
2019-04-03T22:44:56.810Z,10.37
2019-04-03T22:47:25.012Z,10.37
2019-04-03T22:49:51.018Z,9.33
2019-04-03T22:52:17.160Z,11.40
2019-04-03T22:54:43.973Z,11.83
2019-04-03T22:57:10.703Z,12.40
2019-04-03T22:59:36.818Z,13.00
2019-04-03T23:02:03.099Z,12.33
2019-04-03T23:04:29.316Z,13.03
2019-04-03T23:06:55.552Z,14.47
2019-04-03T23:09:24.739Z,14.07
2019-04-03T23:11:49.659Z,13.97
2019-04-03T23:14:17.032Z,13.40
2019-04-03T23:16:43.335Z,12.30
2019-04-03T23:19:09.544Z,11.57
2019-04-03T23:21:35.693Z,12.23
2019-04-03T23:24:02.074Z,13.80
2019-04-03T23:26:28.170Z,13.80
2019-04-03T23:28:54.284Z,12.50
2019-04-03T23:31:20.596Z,13.53
2019-04-03T23:33:47.796Z,14.90
2019-04-03T23:36:14.482Z,14.47
2019-04-03T23:38:40.605Z,14.50
2019-04-03T23:41:06.842Z,14.10
2019-04-03T23:43:32.980Z,12.60
2019-04-03T23:45:59.121Z,12.77
2019-04-03T23:48:25.300Z,13.07
2019-04-03T23:50:52.679Z,12.13
2019-04-03T23:53:19.423Z,12.37
2019-04-03T23:55:45.618Z,11.60
2019-04-03T23:58:11.798Z,13.47
